sensor_id;sensor_type;location;lat;lon;timestamp;temperature;humidity
23124;DHT22;11731;48.592;8.858;2023-04-28T00:00:11;14.40;99.60
23124;DHT22;11731;48.592;8.858;2023-04-28T06:18:33;14.70;99.90
23124;DHT22;11731;48.592;8.858;2023-04-28T06:24:50;14.90;99.90
23124;DHT22;11731;48.592;8.858;2023-04-28T06:28:16;15.00;99.90
23124;DHT22;11731;48.592;8.858;2023-04-28T06:49:18;15.80;99.90
23124;DHT22;11731;48.592;8.858;2023-04-28T06:51:53;16.10;99.90
23124;DHT22;11731;48.592;8.858;2023-04-28T06:54:22;15.60;99.90
23124;DHT22;11731;48.592;8.858;2023-04-28T06:57:20;15.40;99.90
23124;DHT22;11731;48.592;8.858;2023-04-28T07:06:53;15.40;99.90
23124;DHT22;11731;48.592;8.858;2023-04-28T07:09:20;15.60;99.90
23124;DHT22;11731;48.592;8.858;2023-04-28T07:15:15;16.20;99.90
23124;DHT22;11731;48.592;8.858;2023-04-28T07:24:29;15.80;99.90
23124;DHT22;11731;48.592;8.858;2023-04-28T07:26:56;15.50;99.90
23124;DHT22;11731;48.592;8.858;2023-04-28T07:29:37;15.30;99.90
23124;DHT22;11731;48.592;8.858;2023-04-28T07:32:10;15.50;99.90
23124;DHT22;11731;48.592;8.858;2023-04-28T07:38:02;15.50;99.90
23124;DHT22;11731;48.592;8.858;2023-04-28T07:40:32;15.40;99.90
23124;DHT22;11731;48.592;8.858;2023-04-28T07:44:29;15.60;99.90
23124;DHT22;11731;48.592;8.858;2023-04-28T07:46:28;15.60;99.90
23124;DHT22;11731;48.592;8.858;2023-04-28T07:49:16;15.30;99.90
23124;DHT22;11731;48.592;8.858;2023-04-28T07:51:44;15.30;99.90
23124;DHT22;11731;48.592;8.858;2023-04-28T07:57:12;15.40;99.90
23124;DHT22;11731;48.592;8.858;2023-04-28T08:01:01;15.60;99.90
23124;DHT22;11731;48.592;8.858;2023-04-28T08:03:28;15.50;99.90
23124;DHT22;11731;48.592;8.858;2023-04-28T08:06:24;15.40;99.90
23124;DHT22;11731;48.592;8.858;2023-04-28T08:12:46;15.40;99.90
23124;DHT22;11731;48.592;8.858;2023-04-28T08:17:49;15.30;99.90
23124;DHT22;11731;48.592;8.858;2023-04-28T12:02:11;19.90;99.90
23124;DHT22;11731;48.592;8.858;2023-04-28T12:04:39;19.70;99.90
23124;DHT22;11731;48.592;8.858;2023-04-28T12:07:08;19.80;99.90
23124;DHT22;11731;48.592;8.858;2023-04-28T12:09:36;19.80;99.90
23124;DHT22;11731;48.592;8.858;2023-04-28T12:12:04;19.70;99.90
23124;DHT22;11731;48.592;8.858;2023-04-28T12:14:34;19.70;99.90
23124;DHT22;11731;48.592;8.858;2023-04-28T12:17:24;19.90;99.90
23124;DHT22;11731;48.592;8.858;2023-04-28T12:19:51;20.00;99.90
23124;DHT22;11731;48.592;8.858;2023-04-28T12:22:18;19.90;99.90
23124;DHT22;11731;48.592;8.858;2023-04-28T12:24:45;19.80;99.90
23124;DHT22;11731;48.592;8.858;2023-04-28T12:27:16;20.00;99.90
23124;DHT22;11731;48.592;8.858;2023-04-28T12:29:46;20.20;99.90
23124;DHT22;11731;48.592;8.858;2023-04-28T12:32:13;20.30;99.90
23124;DHT22;11731;48.592;8.858;2023-04-28T12:34:44;20.20;99.90
23124;DHT22;11731;48.592;8.858;2023-04-28T12:37:11;20.20;99.90
23124;DHT22;11731;48.592;8.858;2023-04-28T12:39:39;20.50;99.90
23124;DHT22;11731;48.592;8.858;2023-04-28T12:42:06;20.60;99.90
23124;DHT22;11731;48.592;8.858;2023-04-28T12:44:34;20.90;99.90
23124;DHT22;11731;48.592;8.858;2023-04-28T12:47:03;20.70;99.90
23124;DHT22;11731;48.592;8.858;2023-04-28T12:49:29;20.70;99.90
23124;DHT22;11731;48.592;8.858;2023-04-28T12:51:58;20.60;99.90
23124;DHT22;11731;48.592;8.858;2023-04-28T12:54:25;20.40;99.90
23124;DHT22;11731;48.592;8.858;2023-04-28T12:56:52;20.30;99.90
23124;DHT22;11731;48.592;8.858;2023-04-28T12:59:20;20.50;99.90
23124;DHT22;11731;48.592;8.858;2023-04-28T13:01:47;20.30;99.90
23124;DHT22;11731;48.592;8.858;2023-04-28T13:04:14;20.20;99.90
23124;DHT22;11731;48.592;8.858;2023-04-28T13:06:41;20.20;99.90
23124;DHT22;11731;48.592;8.858;2023-04-28T13:09:10;19.90;99.90
23124;DHT22;11731;48.592;8.858;2023-04-28T13:11:37;19.90;99.90
23124;DHT22;11731;48.592;8.858;2023-04-28T13:14:04;19.80;99.90
23124;DHT22;11731;48.592;8.858;2023-04-28T13:16:31;19.60;99.90
23124;DHT22;11731;48.592;8.858;2023-04-28T13:18:59;19.60;99.90
23124;DHT22;11731;48.592;8.858;2023-04-28T13:21:26;19.60;99.90
23124;DHT22;11731;48.592;8.858;2023-04-28T13:23:53;19.40;99.90
23124;DHT22;11731;48.592;8.858;2023-04-28T13:26:22;19.60;99.90
23124;DHT22;11731;48.592;8.858;2023-04-28T13:28:49;19.80;99.90
23124;DHT22;11731;48.592;8.858;2023-04-28T13:31:17;19.70;99.90
23124;DHT22;11731;48.592;8.858;2023-04-28T13:33:44;19.60;99.90
23124;DHT22;11731;48.592;8.858;2023-04-28T13:36:11;19.70;99.90
23124;DHT22;11731;48.592;8.858;2023-04-28T13:38:38;19.70;99.90
23124;DHT22;11731;48.592;8.858;2023-04-28T13:41:05;19.80;99.90
23124;DHT22;11731;48.592;8.858;2023-04-28T13:43:33;20.00;99.90
23124;DHT22;11731;48.592;8.858;2023-04-28T13:46:00;19.80;99.90
23124;DHT22;11731;48.592;8.858;2023-04-28T13:48:32;19.50;99.90
23124;DHT22;11731;48.592;8.858;2023-04-28T13:51:00;19.30;99.90
23124;DHT22;11731;48.592;8.858;2023-04-28T13:53:26;19.00;99.90
23124;DHT22;11731;48.592;8.858;2023-04-28T13:55:53;18.90;99.90
23124;DHT22;11731;48.592;8.858;2023-04-28T13:58:22;18.40;99.90
23124;DHT22;11731;48.592;8.858;2023-04-28T14:00:50;18.10;99.90
23124;DHT22;11731;48.592;8.858;2023-04-28T14:03:17;17.90;99.90
23124;DHT22;11731;48.592;8.858;2023-04-28T14:05:46;17.80;99.90
23124;DHT22;11731;48.592;8.858;2023-04-28T14:08:13;17.50;99.90
23124;DHT22;11731;48.592;8.858;2023-04-28T14:10:40;17.30;99.90
23124;DHT22;11731;48.592;8.858;2023-04-28T14:13:07;17.10;99.90
23124;DHT22;11731;48.592;8.858;2023-04-28T14:15:34;16.80;99.90
23124;DHT22;11731;48.592;8.858;2023-04-28T14:18:02;16.80;99.90
23124;DHT22;11731;48.592;8.858;2023-04-28T14:20:29;16.80;99.90
23124;DHT22;11731;48.592;8.858;2023-04-28T14:22:57;16.50;99.90
23124;DHT22;11731;48.592;8.858;2023-04-28T14:25:24;16.50;99.90
23124;DHT22;11731;48.592;8.858;2023-04-28T14:27:51;16.20;99.90
23124;DHT22;11731;48.592;8.858;2023-04-28T14:30:19;16.10;99.90
23124;DHT22;11731;48.592;8.858;2023-04-28T14:32:46;16.40;99.90
23124;DHT22;11731;48.592;8.858;2023-04-28T14:35:16;16.20;99.90
23124;DHT22;11731;48.592;8.858;2023-04-28T14:37:45;15.90;99.90
23124;DHT22;11731;48.592;8.858;2023-04-28T14:40:13;15.90;99.90
23124;DHT22;11731;48.592;8.858;2023-04-28T14:42:41;15.80;99.90
23124;DHT22;11731;48.592;8.858;2023-04-28T14:45:09;15.60;99.90
23124;DHT22;11731;48.592;8.858;2023-04-28T14:47:37;15.90;99.90
23124;DHT22;11731;48.592;8.858;2023-04-28T14:50:06;15.90;99.90
23124;DHT22;11731;48.592;8.858;2023-04-28T14:52:35;15.90;99.90
23124;DHT22;11731;48.592;8.858;2023-04-28T14:55:03;16.00;99.90
23124;DHT22;11731;48.592;8.858;2023-04-28T14:57:30;16.00;99.90
23124;DHT22;11731;48.592;8.858;2023-04-28T14:59:59;16.10;99.90
23124;DHT22;11731;48.592;8.858;2023-04-28T15:02:30;16.00;99.90
23124;DHT22;11731;48.592;8.858;2023-04-28T15:04:57;16.20;99.90
23124;DHT22;11731;48.592;8.858;2023-04-28T15:07:24;16.30;99.90
23124;DHT22;11731;48.592;8.858;2023-04-28T15:09:57;16.50;99.90
23124;DHT22;11731;48.592;8.858;2023-04-28T15:12:24;16.50;99.90
23124;DHT22;11731;48.592;8.858;2023-04-28T15:14:51;16.50;99.90
23124;DHT22;11731;48.592;8.858;2023-04-28T15:17:18;16.60;99.90
23124;DHT22;11731;48.592;8.858;2023-04-28T15:19:47;16.60;99.90
23124;DHT22;11731;48.592;8.858;2023-04-28T15:22:14;16.70;99.90
23124;DHT22;11731;48.592;8.858;2023-04-28T15:24:41;17.10;99.90
23124;DHT22;11731;48.592;8.858;2023-04-28T15:27:09;18.00;99.90
23124;DHT22;11731;48.592;8.858;2023-04-28T15:29:36;19.00;99.90
23124;DHT22;11731;48.592;8.858;2023-04-28T15:32:04;19.40;99.90
23124;DHT22;11731;48.592;8.858;2023-04-28T15:34:31;19.30;99.90
23124;DHT22;11731;48.592;8.858;2023-04-28T15:36:58;19.30;99.90
23124;DHT22;11731;48.592;8.858;2023-04-28T15:39:25;19.30;99.90
23124;DHT22;11731;48.592;8.858;2023-04-28T15:41:52;19.40;99.90
23124;DHT22;11731;48.592;8.858;2023-04-28T15:44:21;19.60;99.90
23124;DHT22;11731;48.592;8.858;2023-04-28T15:46:48;19.30;99.90
23124;DHT22;11731;48.592;8.858;2023-04-28T15:49:16;19.20;99.90
23124;DHT22;11731;48.592;8.858;2023-04-28T15:51:43;19.20;99.90
23124;DHT22;11731;48.592;8.858;2023-04-28T15:54:11;18.90;99.90
23124;DHT22;11731;48.592;8.858;2023-04-28T15:56:37;18.70;99.90
23124;DHT22;11731;48.592;8.858;2023-04-28T15:59:04;18.90;99.90
23124;DHT22;11731;48.592;8.858;2023-04-28T16:01:33;18.90;99.90
23124;DHT22;11731;48.592;8.858;2023-04-28T16:04:00;19.20;99.90
23124;DHT22;11731;48.592;8.858;2023-04-28T16:06:27;19.10;99.90
23124;DHT22;11731;48.592;8.858;2023-04-28T16:08:54;19.30;99.90
23124;DHT22;11731;48.592;8.858;2023-04-28T16:11:22;19.50;99.90
23124;DHT22;11731;48.592;8.858;2023-04-28T16:13:48;19.20;99.90
23124;DHT22;11731;48.592;8.858;2023-04-28T16:16:15;19.30;99.90
23124;DHT22;11731;48.592;8.858;2023-04-28T16:18:44;19.20;99.90
23124;DHT22;11731;48.592;8.858;2023-04-28T16:21:11;19.30;99.90
23124;DHT22;11731;48.592;8.858;2023-04-28T16:23:40;19.60;99.90
23124;DHT22;11731;48.592;8.858;2023-04-28T16:26:07;19.80;99.90
23124;DHT22;11731;48.592;8.858;2023-04-28T16:28:34;19.70;99.90
23124;DHT22;11731;48.592;8.858;2023-04-28T16:31:01;19.80;99.90
23124;DHT22;11731;48.592;8.858;2023-04-28T16:33:28;20.00;99.90
23124;DHT22;11731;48.592;8.858;2023-04-28T16:35:57;20.20;99.90
23124;DHT22;11731;48.592;8.858;2023-04-28T16:38:25;20.20;99.90
23124;DHT22;11731;48.592;8.858;2023-04-28T16:40:51;20.40;99.90
23124;DHT22;11731;48.592;8.858;2023-04-28T16:43:19;20.20;99.90
23124;DHT22;11731;48.592;8.858;2023-04-28T16:45:46;20.30;99.90
23124;DHT22;11731;48.592;8.858;2023-04-28T16:48:14;20.30;99.90
23124;DHT22;11731;48.592;8.858;2023-04-28T16:50:42;20.40;99.90
23124;DHT22;11731;48.592;8.858;2023-04-28T16:53:10;20.60;99.90
23124;DHT22;11731;48.592;8.858;2023-04-28T16:55:37;20.70;99.90
23124;DHT22;11731;48.592;8.858;2023-04-28T16:58:04;20.70;99.90
23124;DHT22;11731;48.592;8.858;2023-04-28T17:00:31;20.90;99.90
23124;DHT22;11731;48.592;8.858;2023-04-28T17:02:58;20.80;99.90
23124;DHT22;11731;48.592;8.858;2023-04-28T17:05:25;20.80;99.90
23124;DHT22;11731;48.592;8.858;2023-04-28T17:07:51;20.90;99.90
23124;DHT22;11731;48.592;8.858;2023-04-28T17:10:21;20.80;99.90
23124;DHT22;11731;48.592;8.858;2023-04-28T17:12:47;21.10;99.90
23124;DHT22;11731;48.592;8.858;2023-04-28T17:15:15;21.80;99.90
23124;DHT22;11731;48.592;8.858;2023-04-28T17:17:42;21.90;99.90
23124;DHT22;11731;48.592;8.858;2023-04-28T17:20:11;22.50;99.90
23124;DHT22;11731;48.592;8.858;2023-04-28T17:22:41;23.80;99.90
23124;DHT22;11731;48.592;8.858;2023-04-28T17:25:09;24.70;99.90
23124;DHT22;11731;48.592;8.858;2023-04-28T17:27:37;25.70;99.90
23124;DHT22;11731;48.592;8.858;2023-04-28T17:30:06;25.40;99.90
23124;DHT22;11731;48.592;8.858;2023-04-28T17:32:34;25.80;99.90
23124;DHT22;11731;48.592;8.858;2023-04-28T17:35:01;26.70;99.90
23124;DHT22;11731;48.592;8.858;2023-04-28T17:37:31;26.50;99.90
23124;DHT22;11731;48.592;8.858;2023-04-28T17:39:58;25.80;99.90
23124;DHT22;11731;48.592;8.858;2023-04-28T17:42:27;24.70;99.90
23124;DHT22;11731;48.592;8.858;2023-04-28T17:44:56;23.90;99.90
23124;DHT22;11731;48.592;8.858;2023-04-28T17:47:23;23.40;99.90
23124;DHT22;11731;48.592;8.858;2023-04-28T17:49:50;22.90;99.90
23124;DHT22;11731;48.592;8.858;2023-04-28T17:52:17;22.20;99.90
23124;DHT22;11731;48.592;8.858;2023-04-28T17:54:44;21.80;99.90
23124;DHT22;11731;48.592;8.858;2023-04-28T17:57:11;21.20;99.90
23124;DHT22;11731;48.592;8.858;2023-04-28T17:59:39;20.90;99.90
23124;DHT22;11731;48.592;8.858;2023-04-28T18:10:17;21.00;99.90
23124;DHT22;11731;48.592;8.858;2023-04-28T18:21:09;19.80;99.90
23124;DHT22;11731;48.592;8.858;2023-04-28T18:23:36;19.40;99.90
23124;DHT22;11731;48.592;8.858;2023-04-28T18:26:11;19.10;99.90
23124;DHT22;11731;48.592;8.858;2023-04-28T18:32:24;18.60;99.90
23124;DHT22;11731;48.592;8.858;2023-04-28T18:34:57;18.30;99.90
23124;DHT22;11731;48.592;8.858;2023-04-28T18:37:47;18.40;99.90
23124;DHT22;11731;48.592;8.858;2023-04-28T18:40:14;18.30;99.90
23124;DHT22;11731;48.592;8.858;2023-04-28T18:42:42;18.10;99.90
23124;DHT22;11731;48.592;8.858;2023-04-28T18:48:38;17.70;99.90
23124;DHT22;11731;48.592;8.858;2023-04-28T18:59:16;17.10;99.90
23124;DHT22;11731;48.592;8.858;2023-04-28T19:01:43;16.90;99.90
23124;DHT22;11731;48.592;8.858;2023-04-28T19:04:10;16.50;99.90
23124;DHT22;11731;48.592;8.858;2023-04-28T19:06:43;16.40;99.90
23124;DHT22;11731;48.592;8.858;2023-04-28T19:09:10;16.30;99.90
23124;DHT22;11731;48.592;8.858;2023-04-28T19:11:37;16.40;99.90
23124;DHT22;11731;48.592;8.858;2023-04-28T19:14:04;16.40;99.90
23124;DHT22;11731;48.592;8.858;2023-04-28T19:16:56;16.40;99.90
23124;DHT22;11731;48.592;8.858;2023-04-28T19:19:45;16.30;99.90
23124;DHT22;11731;48.592;8.858;2023-04-28T19:22:28;16.20;99.90
23124;DHT22;11731;48.592;8.858;2023-04-28T19:25:13;16.30;99.90
23124;DHT22;11731;48.592;8.858;2023-04-28T19:27:41;16.60;99.90
23124;DHT22;11731;48.592;8.858;2023-04-28T19:31:27;16.80;99.90
23124;DHT22;11731;48.592;8.858;2023-04-28T19:33:12;17.10;99.90
23124;DHT22;11731;48.592;8.858;2023-04-28T19:35:42;17.40;99.90
23124;DHT22;11731;48.592;8.858;2023-04-28T19:41:00;17.50;99.90
23124;DHT22;11731;48.592;8.858;2023-04-28T19:43:27;17.50;99.90
23124;DHT22;11731;48.592;8.858;2023-04-28T19:46:15;17.60;99.90
23124;DHT22;11731;48.592;8.858;2023-04-28T19:51:54;17.30;99.90
23124;DHT22;11731;48.592;8.858;2023-04-28T19:54:21;17.20;99.90
23124;DHT22;11731;48.592;8.858;2023-04-28T20:00:27;17.10;99.90
23124;DHT22;11731;48.592;8.858;2023-04-28T20:03:21;17.00;99.90
23124;DHT22;11731;48.592;8.858;2023-04-28T20:06:24;17.20;99.90
23124;DHT22;11731;48.592;8.858;2023-04-28T20:08:52;17.10;99.90
23124;DHT22;11731;48.592;8.858;2023-04-28T20:11:19;16.80;99.90
23124;DHT22;11731;48.592;8.858;2023-04-28T20:13:47;16.80;99.90
23124;DHT22;11731;48.592;8.858;2023-04-28T20:16:15;16.80;99.90
23124;DHT22;11731;48.592;8.858;2023-04-28T20:18:44;16.90;99.90
23124;DHT22;11731;48.592;8.858;2023-04-28T20:21:11;16.50;99.90
23124;DHT22;11731;48.592;8.858;2023-04-28T20:24:21;15.80;99.90
23124;DHT22;11731;48.592;8.858;2023-04-28T20:26:48;15.70;99.90
23124;DHT22;11731;48.592;8.858;2023-04-28T20:29:16;15.50;99.90
23124;DHT22;11731;48.592;8.858;2023-04-28T20:31:43;15.30;99.90
23124;DHT22;11731;48.592;8.858;2023-04-28T20:34:10;15.30;99.90
23124;DHT22;11731;48.592;8.858;2023-04-28T20:36:37;15.50;99.90
23124;DHT22;11731;48.592;8.858;2023-04-28T20:39:15;15.50;99.90
23124;DHT22;11731;48.592;8.858;2023-04-28T20:41:44;15.80;99.90
23124;DHT22;11731;48.592;8.858;2023-04-28T20:44:10;15.80;99.90
23124;DHT22;11731;48.592;8.858;2023-04-28T20:46:37;15.90;99.90
23124;DHT22;11731;48.592;8.858;2023-04-28T20:52:39;16.20;99.90
23124;DHT22;11731;48.592;8.858;2023-04-28T20:55:07;15.70;99.90
23124;DHT22;11731;48.592;8.858;2023-04-28T20:57:53;15.30;99.90
23124;DHT22;11731;48.592;8.858;2023-04-28T21:00:20;15.20;99.90
23124;DHT22;11731;48.592;8.858;2023-04-28T21:02:47;15.30;99.90
23124;DHT22;11731;48.592;8.858;2023-04-28T21:05:13;15.40;99.90
23124;DHT22;11731;48.592;8.858;2023-04-28T21:07:42;15.40;99.90
23124;DHT22;11731;48.592;8.858;2023-04-28T21:10:09;15.30;99.90
23124;DHT22;11731;48.592;8.858;2023-04-28T21:12:36;15.10;99.90
23124;DHT22;11731;48.592;8.858;2023-04-28T21:15:10;15.10;99.90
23124;DHT22;11731;48.592;8.858;2023-04-28T21:17:38;14.90;99.90
23124;DHT22;11731;48.592;8.858;2023-04-28T21:20:06;15.10;99.90
23124;DHT22;11731;48.592;8.858;2023-04-28T21:22:33;15.40;99.90
23124;DHT22;11731;48.592;8.858;2023-04-28T21:25:01;15.50;99.90
23124;DHT22;11731;48.592;8.858;2023-04-28T21:27:28;15.60;99.90
23124;DHT22;11731;48.592;8.858;2023-04-28T21:33:16;15.60;99.90
23124;DHT22;11731;48.592;8.858;2023-04-28T21:35:43;15.80;99.90
23124;DHT22;11731;48.592;8.858;2023-04-28T21:38:10;15.50;99.90
23124;DHT22;11731;48.592;8.858;2023-04-28T21:40:42;15.50;99.90
23124;DHT22;11731;48.592;8.858;2023-04-28T21:43:09;15.90;99.90
23124;DHT22;11731;48.592;8.858;2023-04-28T21:45:36;15.90;99.90
23124;DHT22;11731;48.592;8.858;2023-04-28T21:48:03;16.00;99.90
23124;DHT22;11731;48.592;8.858;2023-04-28T21:50:33;15.80;99.90
23124;DHT22;11731;48.592;8.858;2023-04-28T21:53:00;15.50;99.90
23124;DHT22;11731;48.592;8.858;2023-04-28T21:55:35;15.30;99.90
23124;DHT22;11731;48.592;8.858;2023-04-28T21:58:02;15.40;99.90
23124;DHT22;11731;48.592;8.858;2023-04-28T22:00:28;15.40;99.90
23124;DHT22;11731;48.592;8.858;2023-04-28T22:03:59;15.30;99.90
23124;DHT22;11731;48.592;8.858;2023-04-28T22:05:59;15.50;99.90
23124;DHT22;11731;48.592;8.858;2023-04-28T22:08:26;15.60;99.90
23124;DHT22;11731;48.592;8.858;2023-04-28T22:10:59;15.70;99.90
23124;DHT22;11731;48.592;8.858;2023-04-28T22:13:37;15.60;99.90
23124;DHT22;11731;48.592;8.858;2023-04-28T22:16:04;15.30;99.90
23124;DHT22;11731;48.592;8.858;2023-04-28T22:18:31;15.20;99.90
23124;DHT22;11731;48.592;8.858;2023-04-28T22:20:59;14.90;99.90
23124;DHT22;11731;48.592;8.858;2023-04-28T22:23:26;14.80;99.90
23124;DHT22;11731;48.592;8.858;2023-04-28T22:25:56;14.70;99.90
23124;DHT22;11731;48.592;8.858;2023-04-28T22:28:23;14.70;99.90
23124;DHT22;11731;48.592;8.858;2023-04-28T22:30:51;14.60;99.90
23124;DHT22;11731;48.592;8.858;2023-04-28T22:33:18;14.30;99.90
23124;DHT22;11731;48.592;8.858;2023-04-28T22:35:45;14.20;99.90
23124;DHT22;11731;48.592;8.858;2023-04-28T22:38:30;14.30;99.90
23124;DHT22;11731;48.592;8.858;2023-04-28T22:40:57;14.70;99.90
23124;DHT22;11731;48.592;8.858;2023-04-28T22:43:24;14.70;99.90
23124;DHT22;11731;48.592;8.858;2023-04-28T22:45:52;14.60;99.90
23124;DHT22;11731;48.592;8.858;2023-04-28T22:48:19;14.60;99.90
23124;DHT22;11731;48.592;8.858;2023-04-28T22:50:46;14.50;99.90
23124;DHT22;11731;48.592;8.858;2023-04-28T22:53:13;14.50;99.90
23124;DHT22;11731;48.592;8.858;2023-04-28T22:59:09;14.90;99.90
23124;DHT22;11731;48.592;8.858;2023-04-28T23:01:38;14.90;99.90
23124;DHT22;11731;48.592;8.858;2023-04-28T23:04:05;15.10;99.90
23124;DHT22;11731;48.592;8.858;2023-04-28T23:06:32;15.40;99.90
23124;DHT22;11731;48.592;8.858;2023-04-28T23:08:59;15.70;99.90
23124;DHT22;11731;48.592;8.858;2023-04-28T23:11:28;15.60;99.90
23124;DHT22;11731;48.592;8.858;2023-04-28T23:13:54;15.60;99.90
23124;DHT22;11731;48.592;8.858;2023-04-28T23:16:23;15.50;99.90
23124;DHT22;11731;48.592;8.858;2023-04-28T23:18:50;15.30;99.90
23124;DHT22;11731;48.592;8.858;2023-04-28T23:22:05;15.20;99.90
23124;DHT22;11731;48.592;8.858;2023-04-28T23:27:30;15.30;99.90
23124;DHT22;11731;48.592;8.858;2023-04-28T23:29:57;15.60;99.90
23124;DHT22;11731;48.592;8.858;2023-04-28T23:32:47;15.50;99.90
23124;DHT22;11731;48.592;8.858;2023-04-28T23:35:14;15.60;99.90
23124;DHT22;11731;48.592;8.858;2023-04-28T23:37:44;15.50;99.90
23124;DHT22;11731;48.592;8.858;2023-04-28T23:40:11;15.40;99.90
23124;DHT22;11731;48.592;8.858;2023-04-28T23:42:38;15.20;99.90
23124;DHT22;11731;48.592;8.858;2023-04-28T23:45:06;15.10;99.90
23124;DHT22;11731;48.592;8.858;2023-04-28T23:47:34;14.70;99.90
23124;DHT22;11731;48.592;8.858;2023-04-28T23:50:02;14.90;99.90
23124;DHT22;11731;48.592;8.858;2023-04-28T23:52:30;15.00;99.90
23124;DHT22;11731;48.592;8.858;2023-04-28T23:55:31;15.10;99.90
23124;DHT22;11731;48.592;8.858;2023-04-28T23:57:51;15.30;99.90
